.
WxDataArchive / Data Records for 2012-03-21
2012-03-20 March 2012 2012-03-22

Data Records for Wednesday, 21 March 2012

Time	Temp	Chill	HIndex	Humid	Dewpt	 Wind 	HiWind	WindDir	Rain 	Barom 
-----	----	-----	------	-----	-----	------	------	-------	-----	----- 
00:00	64.7	64.7	64.7	68	53.9	0	0	---	0.00	30.099 
00:05	64.2	64.2	64.2	69	53.8	0	1	112	0.00	30.099 
00:10	63.9	63.9	63.9	70	53.9	0	0	---	0.00	30.099 
00:15	63.4	63.4	63.4	71	53.8	0	0	---	0.00	30.099 
00:20	63.2	63.2	63.2	71	53.6	0	0	---	0.00	30.099 
00:25	62.9	62.9	62.9	72	53.7	0	0	---	0.00	30.099 
00:30	62.7	62.7	62.7	72	53.5	0	0	---	0.00	30.100 
00:35	62.6	62.6	62.6	73	53.8	0	0	---	0.00	30.100 
00:40	62.3	62.3	62.3	73	53.5	0	0	---	0.00	30.100 
00:45	62.1	62.1	62.1	73	53.3	0	0	---	0.00	30.098 
00:50	62.0	62.0	62.0	74	53.6	0	0	---	0.00	30.098 
00:55	61.8	61.8	61.8	74	53.4	0	0	---	0.00	30.098 
01:00	61.5	61.5	61.5	75	53.5	0	0	---	0.00	30.099 
01:05	61.5	61.5	61.5	76	53.9	0	0	---	0.00	30.099 
01:10	61.3	61.3	61.3	75	53.3	0	0	---	0.00	30.099 
01:15	61.2	61.2	61.2	76	53.6	0	0	---	0.00	30.094 
01:20	61.0	61.0	61.0	76	53.4	0	0	---	0.00	30.094 
01:25	60.9	60.9	60.9	77	53.6	0	0	---	0.00	30.094 
01:30	60.7	60.7	60.7	77	53.4	0	0	---	0.00	30.095 
01:35	60.4	60.4	60.4	77	53.2	0	0	---	0.00	30.095 
01:40	60.2	60.2	60.2	78	53.3	0	0	---	0.00	30.095 
01:45	59.9	59.9	59.9	79	53.4	0	0	---	0.00	30.098 
01:50	59.8	59.8	59.8	79	53.3	0	0	---	0.00	30.098 
01:55	59.5	59.5	59.5	80	53.3	0	0	---	0.00	30.098 
02:00	59.3	59.3	59.3	80	53.1	0	0	---	0.00	30.099 
02:05	59.3	59.3	59.3	80	53.1	0	0	---	0.00	30.099 
02:10	59.3	59.3	59.3	81	53.5	0	0	---	0.00	30.099 
02:15	59.2	59.2	59.2	82	53.7	0	0	---	0.00	30.104 
02:20	59.0	59.0	59.0	82	53.5	0	0	---	0.00	30.104 
02:25	58.9	58.9	58.9	83	53.7	0	0	---	0.00	30.104 
02:30	58.7	58.7	58.7	83	53.5	0	0	---	0.00	30.102 
02:35	58.7	58.7	58.7	83	53.5	0	0	---	0.00	30.102 
02:40	58.6	58.6	58.6	84	53.8	0	0	---	0.00	30.102 
02:45	58.4	58.4	58.4	84	53.6	0	0	---	0.00	30.102 
02:50	58.3	58.3	58.3	84	53.5	0	0	---	0.00	30.102 
02:55	58.3	58.3	58.3	85	53.8	0	0	---	0.00	30.102 
03:00	58.4	58.4	58.4	86	54.2	0	0	---	0.00	30.100 
03:05	58.3	58.3	58.3	86	54.1	0	0	---	0.00	30.100 
03:10	58.3	58.3	58.3	86	54.1	0	0	---	0.00	30.100 
03:15	58.3	58.3	58.3	86	54.1	0	0	---	0.00	30.101 
03:20	58.4	58.4	58.4	85	53.9	0	0	---	0.00	30.101 
03:25	58.6	58.6	58.6	84	53.8	0	0	---	0.00	30.101 
03:30	58.9	58.9	58.9	83	53.7	0	0	---	0.00	30.098 
03:35	59.0	59.0	59.0	82	53.5	0	0	---	0.00	30.098 
03:40	59.0	59.0	59.0	82	53.5	0	0	---	0.00	30.098 
03:45	59.2	59.2	59.2	81	53.4	0	1	112	0.00	30.097 
03:50	59.3	59.3	59.3	81	53.5	0	1	112	0.00	30.097 
03:55	59.3	59.3	59.3	81	53.5	0	0	---	0.00	30.097 
04:00	59.3	59.3	59.3	81	53.5	0	0	---	0.00	30.095 
04:05	59.2	59.2	59.2	81	53.4	0	0	---	0.00	30.095 
04:10	59.0	59.0	59.0	81	53.2	0	0	---	0.00	30.095 
04:15	58.7	58.7	58.7	81	52.9	0	0	---	0.00	30.092 
04:20	58.6	58.6	58.6	81	52.8	0	0	---	0.00	30.092 
04:25	58.4	58.4	58.4	83	53.3	0	0	---	0.00	30.092 
04:30	58.3	58.3	58.3	83	53.2	0	0	---	0.00	30.092 
04:35	58.3	58.3	58.3	83	53.2	0	0	---	0.00	30.092 
04:40	58.1	58.1	58.1	83	53.0	0	0	---	0.00	30.092 
04:45	58.0	58.0	58.0	84	53.2	0	0	---	0.00	30.090 
04:50	57.8	57.8	57.8	84	53.0	0	0	---	0.00	30.090 
04:55	57.8	57.8	57.8	84	53.0	0	0	---	0.00	30.090 
05:00	57.6	57.6	57.6	84	52.8	0	0	---	0.00	30.091 
05:05	57.6	57.6	57.6	84	52.8	0	0	---	0.00	30.091 
05:10	57.6	57.6	57.6	84	52.8	0	0	---	0.00	30.091 
05:15	57.5	57.5	57.5	84	52.7	0	0	---	0.00	30.089 
05:20	57.5	57.5	57.5	85	53.0	0	0	---	0.00	30.089 
05:25	57.5	57.5	57.5	85	53.0	0	0	---	0.00	30.089 
05:30	57.5	57.5	57.5	84	52.7	0	0	---	0.00	30.092 
05:35	57.5	57.5	57.5	85	53.0	0	0	---	0.00	30.092 
05:40	57.3	57.3	57.3	85	52.8	0	0	---	0.00	30.092 
05:45	57.2	57.2	57.2	85	52.7	0	0	---	0.00	30.095 
05:50	57.2	57.2	57.2	85	52.7	0	0	---	0.00	30.095 
05:55	57.2	57.2	57.2	85	52.7	0	0	---	0.00	30.095 
06:00	57.2	57.2	57.2	85	52.7	0	0	---	0.00	30.097 
06:05	57.0	57.0	57.0	85	52.5	0	0	---	0.00	30.097 
06:10	56.7	56.7	56.7	85	52.2	0	0	---	0.00	30.097 
06:15	56.6	56.6	56.6	85	52.1	0	0	---	0.00	30.099 
06:20	56.5	56.5	56.5	86	52.4	0	0	---	0.00	30.099 
06:25	56.2	56.2	56.2	86	52.1	0	0	---	0.00	30.099 
06:30	56.0	56.0	56.0	86	51.9	0	0	---	0.00	30.105 
06:35	55.7	55.7	55.7	86	51.6	0	0	---	0.00	30.105 
06:40	55.6	55.6	55.6	87	51.8	0	0	---	0.00	30.105 
06:45	55.4	55.4	55.4	87	51.6	0	0	---	0.00	30.111 
06:50	55.3	55.3	55.3	87	51.5	0	0	---	0.00	30.111 
06:55	55.3	55.3	55.3	88	51.8	0	0	---	0.00	30.111 
07:00	55.3	55.3	55.3	88	51.8	0	0	---	0.00	30.115 
07:05	55.1	55.1	55.1	89	51.9	0	0	---	0.00	30.115 
07:10	55.3	55.3	55.3	89	52.1	0	0	---	0.00	30.115 
07:15	55.4	55.4	55.4	90	52.5	0	0	---	0.00	30.119 
07:20	55.6	55.6	55.6	90	52.7	0	0	---	0.00	30.119 
07:25	55.7	55.7	55.7	89	52.5	0	0	---	0.00	30.119 
07:30	55.7	55.7	55.7	89	52.5	0	0	---	0.00	30.122 
07:35	55.6	55.6	55.6	88	52.1	0	0	---	0.00	30.122 
07:40	55.4	55.4	55.4	88	51.9	0	0	---	0.00	30.122 
07:45	55.3	55.3	55.3	88	51.8	0	0	---	0.00	30.127 
07:50	55.1	55.1	55.1	88	51.6	0	0	---	0.00	30.127 
07:55	55.1	55.1	55.1	88	51.6	0	0	---	0.00	30.127 
08:00	55.1	55.1	55.1	89	51.9	0	0	---	0.00	30.129 
08:05	55.0	55.0	55.0	89	51.8	0	0	---	0.00	30.129 
08:10	55.0	55.0	55.0	89	51.8	0	0	---	0.00	30.129 
08:15	55.0	55.0	55.0	89	51.8	0	0	---	0.00	30.138 
08:20	55.0	55.0	55.0	89	51.8	0	0	---	0.00	30.138 
08:25	55.1	55.1	55.1	89	51.9	0	0	---	0.00	30.138 
08:30	55.3	55.3	55.3	89	52.1	0	0	---	0.00	30.141 
08:35	55.6	55.6	55.6	90	52.7	0	0	---	0.00	30.141 
08:40	56.0	56.0	56.0	90	53.1	0	0	---	0.00	30.141 
08:45	56.7	56.7	56.7	89	53.5	0	0	---	0.00	30.139 
08:50	57.6	57.6	57.6	88	54.1	0	0	---	0.00	30.139 
08:55	58.7	58.7	58.7	87	54.8	0	0	---	0.00	30.139 
09:00	59.8	59.8	59.8	84	55.0	0	3	0	0.00	30.139 
09:05	60.7	60.7	60.7	81	54.8	0	2	0	0.00	30.139 
09:10	61.6	61.6	61.6	77	54.3	0	2	0	0.00	30.139 
09:15	62.4	62.4	62.4	75	54.4	0	2	0	0.00	30.141 
09:20	63.2	63.2	63.2	73	54.4	0	1	0	0.00	30.141 
09:25	63.9	63.9	63.9	71	54.3	1	3	0	0.00	30.141 
09:30	64.5	64.5	64.5	70	54.5	1	2	0	0.00	30.146 
09:35	65.2	65.2	65.2	68	54.4	1	2	0	0.00	30.146 
09:40	65.8	65.8	65.8	67	54.5	0	1	0	0.00	30.146 
09:45	66.3	66.3	66.3	66	54.6	0	3	0	0.00	30.147 
09:50	66.8	66.8	66.8	66	55.1	0	2	0	0.00	30.147 
09:55	67.3	67.3	67.3	65	55.1	0	1	0	0.00	30.147 
10:00	67.9	67.9	67.9	63	54.8	0	1	0	0.00	30.145 
10:05	68.8	68.8	68.8	63	55.7	0	2	0	0.00	30.145 
10:10	69.6	69.6	69.6	63	56.4	0	1	0	0.00	30.145 
10:15	70.6	70.6	70.6	60	56.0	0	2	0	0.00	30.149 
10:20	71.5	71.5	71.5	60	56.9	0	2	135	0.00	30.149 
10:25	72.3	72.3	72.3	56	55.7	1	3	135	0.00	30.149 
10:30	73.0	73.0	73.0	56	56.4	1	4	112	0.00	30.150 
10:35	73.5	73.5	73.5	57	57.3	1	3	112	0.00	30.150 
10:40	73.9	73.9	73.9	56	57.2	2	4	68	0.00	30.150 
10:45	74.2	74.2	74.2	57	58.0	1	3	68	0.00	30.146 
10:50	74.7	74.7	74.7	54	56.9	0	3	68	0.00	30.146 
10:55	75.8	75.8	78.0	53	57.4	0	2	68	0.00	30.146 
11:00	76.7	76.7	78.4	51	57.2	1	4	68	0.00	30.144 
11:05	77.4	77.4	78.7	46	55.0	0	3	68	0.00	30.144 
11:10	78.3	78.3	79.2	45	55.2	1	3	112	0.00	30.144 
11:15	79.2	79.2	79.6	43	54.7	0	3	158	0.00	30.141 
11:20	79.9	79.9	80.2	44	56.0	0	2	135	0.00	30.141 
11:25	80.3	80.3	80.6	45	57.0	0	2	135	0.00	30.141 
11:30	80.5	80.5	80.8	46	57.8	0	1	248	0.00	30.139 
11:35	80.1	80.1	80.1	41	54.2	1	3	248	0.00	30.139 
11:40	79.9	79.9	80.1	43	55.4	1	3	248	0.00	30.139 
11:45	80.1	80.1	80.4	45	56.8	0	3	248	0.00	30.139 
11:50	80.1	80.1	80.3	44	56.2	1	3	248	0.00	30.139 
11:55	80.1	80.1	80.3	43	55.6	1	5	248	0.00	30.139 
12:00	80.5	80.5	80.9	47	58.4	0	2	248	0.00	30.135 
12:05	80.7	80.7	80.7	43	56.1	1	2	248	0.00	30.135 
12:10	81.2	81.2	81.3	45	57.8	0	1	248	0.00	30.135 
12:15	81.4	81.4	81.1	41	55.4	1	4	248	0.00	30.133 
12:20	81.8	81.8	81.6	43	57.1	1	5	112	0.00	30.133 
12:25	82.2	82.2	81.9	42	56.8	0	3	112	0.00	30.133 
12:30	82.4	82.4	82.2	43	57.6	0	2	112	0.00	30.126 
12:35	82.8	82.8	82.2	40	56.0	0	3	248	0.00	30.126 
12:40	82.8	82.8	82.2	40	56.0	0	2	248	0.00	30.126 
12:45	83.2	83.2	83.0	43	58.3	0	2	248	0.00	30.124 
12:50	83.0	83.0	82.2	39	55.5	1	2	270	0.00	30.124 
12:55	83.2	83.2	82.4	39	55.6	0	2	270	0.00	30.124 
13:00	83.2	83.2	82.3	38	54.9	1	3	270	0.00	30.121 
13:05	83.4	83.4	82.7	40	56.5	0	1	270	0.00	30.121 
13:10	83.4	83.4	82.7	40	56.5	1	3	270	0.00	30.121 
13:15	83.4	83.4	82.4	38	55.1	0	1	270	0.00	30.117 
13:20	83.4	83.4	82.4	38	55.1	1	2	270	0.00	30.117 
13:25	83.4	83.4	82.4	38	55.1	0	1	270	0.00	30.117 
13:30	83.8	83.8	82.9	39	56.2	0	3	270	0.00	30.112 
13:35	83.8	83.8	82.7	37	54.7	1	3	270	0.00	30.112 
13:40	83.8	83.8	82.9	39	56.2	1	2	270	0.00	30.112 
13:45	83.8	83.8	82.7	37	54.7	0	2	270	0.00	30.104 
13:50	84.0	84.0	83.1	39	56.3	0	2	270	0.00	30.104 
13:55	84.3	84.3	83.0	36	54.4	0	3	112	0.00	30.104 
14:00	84.3	84.3	83.0	36	54.4	0	3	112	0.00	30.097 
14:05	84.5	84.5	83.0	35	53.8	1	3	248	0.00	30.097 
14:10	84.5	84.5	83.0	35	53.8	0	2	248	0.00	30.097 
14:15	84.9	84.9	84.2	40	57.8	0	1	248	0.00	30.091 
14:20	84.9	84.9	83.6	36	54.9	1	4	248	0.00	30.091 
14:25	84.5	84.5	83.0	35	53.8	2	5	112	0.00	30.091 
14:30	84.0	84.0	82.6	35	53.4	3	6	90	0.00	30.081 
14:35	83.8	83.8	82.5	36	54.0	0	1	90	0.00	30.081 
14:40	84.1	84.1	82.7	35	53.5	0	1	90	0.00	30.081 
14:45	84.5	84.5	83.0	35	53.8	0	2	90	0.00	30.075 
14:50	84.7	84.7	83.4	36	54.8	1	3	90	0.00	30.075 
14:55	84.7	84.7	83.2	35	54.0	1	3	90	0.00	30.075 
15:00	84.5	84.5	82.6	32	51.4	1	3	112	0.00	30.065 
15:05	84.5	84.5	83.0	35	53.8	1	4	112	0.00	30.065 
15:10	84.5	84.5	83.3	37	55.3	0	2	112	0.00	30.065 
15:15	84.9	84.9	83.1	33	52.6	0	2	270	0.00	30.060 
15:20	85.1	85.1	83.5	34	53.5	1	2	270	0.00	30.060 
15:25	85.1	85.1	83.6	35	54.3	1	3	270	0.00	30.060 
15:30	85.1	85.1	83.6	35	54.3	0	5	112	0.00	30.057 
15:35	85.1	85.1	83.6	35	54.3	0	2	112	0.00	30.057 
15:40	85.1	85.1	83.3	33	52.7	1	2	112	0.00	30.057 
15:45	85.3	85.3	83.5	33	52.9	0	2	112	0.00	30.047 
15:50	85.1	85.1	83.3	33	52.7	0	1	90	0.00	30.047 
15:55	85.3	85.3	84.1	37	56.0	0	3	90	0.00	30.047 
16:00	85.3	85.3	83.8	35	54.5	0	1	90	0.00	30.044 
16:05	85.3	85.3	83.2	31	51.2	1	3	90	0.00	30.044 
16:10	85.3	85.3	83.1	30	50.3	0	1	90	0.00	30.044 
16:15	85.5	85.5	83.8	34	53.9	1	2	90	0.00	30.043 
16:20	85.5	85.5	83.3	30	50.5	1	2	90	0.00	30.043 
16:25	85.5	85.5	83.6	32	52.2	0	3	90	0.00	30.043 
16:30	85.5	85.5	83.4	31	51.4	0	3	90	0.00	30.045 
16:35	85.1	85.1	83.1	31	51.0	0	2	90	0.00	30.045 
16:40	84.9	84.9	83.3	34	53.4	0	1	90	0.00	30.045 
16:45	84.7	84.7	82.7	31	50.7	1	3	90	0.00	30.044 
16:50	84.7	84.7	82.6	30	49.8	1	4	90	0.00	30.044 
16:55	84.7	84.7	82.6	30	49.8	1	4	90	0.00	30.044 
17:00	84.7	84.7	82.6	30	49.8	1	3	90	0.00	30.038 
17:05	84.9	84.9	82.8	30	50.0	0	1	90	0.00	30.038 
17:10	84.9	84.9	83.3	34	53.4	0	2	90	0.00	30.038 
17:15	84.7	84.7	82.6	30	49.8	1	4	135	0.00	30.036 
17:20	84.3	84.3	82.3	30	49.5	1	6	112	0.00	30.036 
17:25	84.1	84.1	82.2	31	50.2	0	2	135	0.00	30.036 
17:30	84.1	84.1	82.3	32	51.0	0	2	135	0.00	30.037 
17:35	84.1	84.1	82.5	34	52.7	1	4	135	0.00	30.037 
17:40	84.3	84.3	82.4	31	50.3	1	2	158	0.00	30.037 
17:45	84.3	84.3	82.6	33	52.0	1	5	90	0.00	30.036 
17:50	84.1	84.1	82.3	32	51.0	0	3	90	0.00	30.036 
17:55	84.0	84.0	82.2	32	50.9	0	2	90	0.00	30.036 
18:00	83.8	83.8	82.2	33	51.6	0	1	90	0.00	30.035 
18:05	83.6	83.6	82.0	33	51.4	0	3	90	0.00	30.035 
18:10	83.6	83.6	81.7	30	48.9	1	4	90	0.00	30.035 
18:15	83.6	83.6	82.0	33	51.4	0	0	---	0.00	30.038 
18:20	83.4	83.4	81.8	33	51.2	0	2	90	0.00	30.038 
18:25	83.4	83.4	81.9	34	52.1	0	1	90	0.00	30.038 
18:30	83.2	83.2	81.6	32	50.2	0	2	90	0.00	30.039 
18:35	83.0	83.0	81.4	32	50.1	1	2	90	0.00	30.039 
18:40	83.0	83.0	81.3	31	49.2	1	3	90	0.00	30.039 
18:45	83.0	83.0	81.4	32	50.1	0	2	112	0.00	30.042 
18:50	83.0	83.0	81.6	34	51.7	0	1	112	0.00	30.042 
18:55	82.6	82.6	81.2	33	50.6	0	1	112	0.00	30.042 
19:00	82.4	82.4	81.1	34	51.2	0	0	---	0.00	30.045 
19:05	82.0	82.0	80.9	35	51.6	0	0	---	0.00	30.045 
19:10	81.6	81.6	80.5	34	50.5	0	0	---	0.00	30.045 
19:15	81.2	81.2	80.3	35	50.9	0	1	112	0.00	30.051 
19:20	81.1	81.1	80.3	35	50.8	0	1	112	0.00	30.051 
19:25	80.9	80.9	80.3	37	52.2	0	0	---	0.00	30.051 
19:30	80.5	80.5	79.9	36	51.1	0	0	---	0.00	30.054 
19:35	80.1	80.1	79.8	37	51.5	0	0	---	0.00	30.054 
19:40	79.8	79.8	79.6	38	51.9	0	0	---	0.00	30.054 
19:45	79.4	79.4	79.5	39	52.3	0	0	---	0.00	30.059 
19:50	78.8	78.8	79.1	39	51.7	0	0	---	0.00	30.059 
19:55	78.3	78.3	78.9	41	52.6	0	0	---	0.00	30.059 
20:00	77.6	77.6	78.7	43	53.3	0	0	---	0.00	30.062 
20:05	77.0	77.0	78.4	43	52.8	0	0	---	0.00	30.062 
20:10	76.3	76.3	78.1	45	53.4	0	0	---	0.00	30.062 
20:15	75.6	75.6	77.8	46	53.3	0	0	---	0.00	30.058 
20:20	75.1	75.1	77.7	46	52.9	0	0	---	0.00	30.058 
20:25	74.6	74.6	74.6	48	53.6	0	0	---	0.00	30.058 
20:30	74.0	74.0	74.0	48	53.0	0	0	---	0.00	30.060 
20:35	73.7	73.7	73.7	50	53.9	0	0	---	0.00	30.060 
20:40	73.3	73.3	73.3	50	53.5	0	0	---	0.00	30.060 
20:45	73.0	73.0	73.0	50	53.2	0	0	---	0.00	30.065 
20:50	72.5	72.5	72.5	50	52.8	0	0	---	0.00	30.065 
20:55	72.1	72.1	72.1	50	52.4	0	0	---	0.00	30.065 
21:00	71.8	71.8	71.8	50	52.1	0	0	---	0.00	30.071 
21:05	71.3	71.3	71.3	51	52.2	0	0	---	0.00	30.071 
21:10	70.9	70.9	70.9	52	52.4	0	0	---	0.00	30.071 
21:15	70.6	70.6	70.6	54	53.1	0	0	---	0.00	30.067 
21:20	70.3	70.3	70.3	55	53.4	0	0	---	0.00	30.067 
21:25	69.9	69.9	69.9	56	53.5	0	0	---	0.00	30.067 
21:30	69.6	69.6	69.6	57	53.7	0	0	---	0.00	30.068 
21:35	69.3	69.3	69.3	59	54.3	0	0	---	0.00	30.068 
21:40	69.1	69.1	69.1	60	54.6	0	0	---	0.00	30.068 
21:45	68.9	68.9	68.9	61	54.9	0	0	---	0.00	30.071 
21:50	68.6	68.6	68.6	61	54.6	0	0	---	0.00	30.071 
21:55	68.4	68.4	68.4	62	54.9	0	0	---	0.00	30.071 
22:00	68.1	68.1	68.1	64	55.5	0	0	---	0.00	30.070 
22:05	67.9	67.9	67.9	66	56.1	0	0	---	0.00	30.070 
22:10	67.8	67.8	67.8	66	56.0	0	0	---	0.00	30.070 
22:15	67.4	67.4	67.4	66	55.6	0	0	---	0.00	30.063 
22:20	67.3	67.3	67.3	65	55.1	1	3	112	0.00	30.063 
22:25	67.8	67.8	67.8	58	52.5	1	3	112	0.00	30.063 
22:30	68.4	68.4	68.4	58	53.0	0	0	---	0.00	30.065 
22:35	68.6	68.6	68.6	58	53.2	0	0	---	0.00	30.065 
22:40	68.4	68.4	68.4	58	53.0	0	0	---	0.00	30.065 
22:45	68.3	68.3	68.3	59	53.4	0	0	---	0.00	30.067 
22:50	67.9	67.9	67.9	60	53.5	0	0	---	0.00	30.067 
22:55	67.4	67.4	67.4	62	53.9	0	0	---	0.00	30.067 
23:00	67.1	67.1	67.1	62	53.6	0	1	112	0.00	30.071 
23:05	66.6	66.6	66.6	62	53.2	0	0	---	0.00	30.071 
23:10	66.1	66.1	66.1	63	53.1	0	0	---	0.00	30.071 
23:15	65.8	65.8	65.8	64	53.3	0	0	---	0.00	30.069 
23:20	65.5	65.5	65.5	64	53.0	0	0	---	0.00	30.069 
23:25	65.2	65.2	65.2	65	53.1	0	0	---	0.00	30.069 
23:30	65.0	65.0	65.0	66	53.4	0	0	---	0.00	30.070 
23:35	64.7	64.7	64.7	67	53.5	0	0	---	0.00	30.070 
23:40	64.3	64.3	64.3	68	53.5	0	0	---	0.00	30.070 
23:45	64.0	64.0	64.0	69	53.6	0	0	---	0.00	30.070 
23:50	63.7	63.7	63.7	70	53.7	0	0	---	0.00	30.070 
23:55	63.5	63.5	63.5	71	53.9	0	0	---	0.00	30.070 

CoCoRaHS
IN-AL-39
A2 Web Hosting
Creative Commons License
GoDaddy
search engine by freefind advanced

loaded 2018-11-18 11:50:27 • last modified 2010-11-18 10:43:29
Privacy PolicyDisclaimer
• wx.awcolley.com is powered by PmWiki v.2002016 •
• all content (unless otherwise noted) © 2018 A W Colley